sensor_id;sensor_type;location;lat;lon;timestamp;P1;durP1;ratioP1;P2;durP2;ratioP2
45358;SDS011;31096;49.292;8.710;2023-03-23T00:03:40;3.83;;;2.00;;
45358;SDS011;31096;49.292;8.710;2023-03-23T00:08:33;3.80;;;2.00;;
45358;SDS011;31096;49.292;8.710;2023-03-23T00:13:34;4.40;;;1.73;;
45358;SDS011;31096;49.292;8.710;2023-03-23T00:18:26;3.38;;;1.55;;
45358;SDS011;31096;49.292;8.710;2023-03-23T00:23:18;5.15;;;1.75;;
45358;SDS011;31096;49.292;8.710;2023-03-23T00:28:12;4.00;;;2.00;;
45358;SDS011;31096;49.292;8.710;2023-03-23T00:33:04;3.30;;;1.70;;
45358;SDS011;31096;49.292;8.710;2023-03-23T00:37:55;3.30;;;1.60;;
45358;SDS011;31096;49.292;8.710;2023-03-23T00:42:46;4.13;;;1.73;;
45358;SDS011;31096;49.292;8.710;2023-03-23T00:47:38;3.53;;;1.90;;
45358;SDS011;31096;49.292;8.710;2023-03-23T00:52:31;4.22;;;1.83;;
45358;SDS011;31096;49.292;8.710;2023-03-23T00:57:22;3.40;;;1.80;;
45358;SDS011;31096;49.292;8.710;2023-03-23T01:02:14;3.10;;;1.38;;
45358;SDS011;31096;49.292;8.710;2023-03-23T01:07:04;3.30;;;1.40;;
45358;SDS011;31096;49.292;8.710;2023-03-23T01:11:58;3.28;;;1.50;;
45358;SDS011;31096;49.292;8.710;2023-03-23T01:16:48;3.43;;;1.60;;
45358;SDS011;31096;49.292;8.710;2023-03-23T01:21:39;3.33;;;1.67;;
45358;SDS011;31096;49.292;8.710;2023-03-23T01:26:30;3.33;;;1.40;;
45358;SDS011;31096;49.292;8.710;2023-03-23T01:31:22;3.40;;;1.60;;
45358;SDS011;31096;49.292;8.710;2023-03-23T01:36:19;3.38;;;1.80;;
45358;SDS011;31096;49.292;8.710;2023-03-23T01:41:22;3.65;;;1.70;;
45358;SDS011;31096;49.292;8.710;2023-03-23T01:46:13;3.63;;;2.00;;
45358;SDS011;31096;49.292;8.710;2023-03-23T01:51:09;4.30;;;1.90;;
45358;SDS011;31096;49.292;8.710;2023-03-23T01:56:03;4.45;;;2.20;;
45358;SDS011;31096;49.292;8.710;2023-03-23T02:00:56;3.63;;;1.93;;
45358;SDS011;31096;49.292;8.710;2023-03-23T02:05:50;3.93;;;2.10;;
45358;SDS011;31096;49.292;8.710;2023-03-23T02:10:41;3.83;;;1.83;;
45358;SDS011;31096;49.292;8.710;2023-03-23T02:20:49;3.47;;;1.60;;
45358;SDS011;31096;49.292;8.710;2023-03-23T02:26:34;4.57;;;2.00;;
45358;SDS011;31096;49.292;8.710;2023-03-23T02:37:21;3.72;;;1.92;;
45358;SDS011;31096;49.292;8.710;2023-03-23T02:42:38;4.55;;;1.70;;
45358;SDS011;31096;49.292;8.710;2023-03-23T02:47:31;3.60;;;1.83;;
45358;SDS011;31096;49.292;8.710;2023-03-23T02:52:24;4.20;;;1.55;;
45358;SDS011;31096;49.292;8.710;2023-03-23T02:57:18;3.90;;;2.28;;
45358;SDS011;31096;49.292;8.710;2023-03-23T03:02:11;4.37;;;2.30;;
45358;SDS011;31096;49.292;8.710;2023-03-23T03:07:10;4.23;;;2.10;;
45358;SDS011;31096;49.292;8.710;2023-03-23T03:12:24;4.22;;;1.83;;
45358;SDS011;31096;49.292;8.710;2023-03-23T03:17:26;3.88;;;1.77;;
45358;SDS011;31096;49.292;8.710;2023-03-23T03:22:19;3.60;;;1.70;;
45358;SDS011;31096;49.292;8.710;2023-03-23T03:27:11;4.13;;;2.13;;
45358;SDS011;31096;49.292;8.710;2023-03-23T03:32:07;3.75;;;1.63;;
45358;SDS011;31096;49.292;8.710;2023-03-23T03:37:03;4.33;;;2.07;;
45358;SDS011;31096;49.292;8.710;2023-03-23T03:41:55;3.90;;;1.80;;
45358;SDS011;31096;49.292;8.710;2023-03-23T03:46:46;5.47;;;2.13;;
45358;SDS011;31096;49.292;8.710;2023-03-23T03:51:37;3.85;;;2.10;;
45358;SDS011;31096;49.292;8.710;2023-03-23T03:56:28;3.80;;;2.10;;
45358;SDS011;31096;49.292;8.710;2023-03-23T04:01:21;4.55;;;2.35;;
45358;SDS011;31096;49.292;8.710;2023-03-23T04:06:12;3.75;;;2.03;;
45358;SDS011;31096;49.292;8.710;2023-03-23T04:11:03;4.07;;;2.17;;
45358;SDS011;31096;49.292;8.710;2023-03-23T04:15:54;4.10;;;2.03;;
45358;SDS011;31096;49.292;8.710;2023-03-23T04:20:45;3.43;;;1.90;;
45358;SDS011;31096;49.292;8.710;2023-03-23T04:25:38;4.45;;;1.98;;
45358;SDS011;31096;49.292;8.710;2023-03-23T04:30:31;4.75;;;2.00;;
45358;SDS011;31096;49.292;8.710;2023-03-23T04:35:23;3.80;;;1.97;;
45358;SDS011;31096;49.292;8.710;2023-03-23T04:40:16;3.92;;;2.63;;
45358;SDS011;31096;49.292;8.710;2023-03-23T04:45:08;4.60;;;1.87;;
45358;SDS011;31096;49.292;8.710;2023-03-23T04:49:59;3.80;;;2.10;;
45358;SDS011;31096;49.292;8.710;2023-03-23T04:54:51;4.40;;;2.30;;
45358;SDS011;31096;49.292;8.710;2023-03-23T04:59:42;3.80;;;2.10;;
45358;SDS011;31096;49.292;8.710;2023-03-23T05:04:33;4.63;;;2.40;;
45358;SDS011;31096;49.292;8.710;2023-03-23T05:09:24;3.87;;;2.20;;
45358;SDS011;31096;49.292;8.710;2023-03-23T05:14:14;4.40;;;2.20;;
45358;SDS011;31096;49.292;8.710;2023-03-23T05:19:06;4.20;;;2.33;;
45358;SDS011;31096;49.292;8.710;2023-03-23T05:23:57;4.60;;;2.38;;
45358;SDS011;31096;49.292;8.710;2023-03-23T05:28:50;4.28;;;2.40;;
45358;SDS011;31096;49.292;8.710;2023-03-23T05:33:42;4.30;;;2.60;;
45358;SDS011;31096;49.292;8.710;2023-03-23T05:38:33;6.37;;;2.93;;
45358;SDS011;31096;49.292;8.710;2023-03-23T05:43:23;4.80;;;2.60;;
45358;SDS011;31096;49.292;8.710;2023-03-23T05:48:14;3.77;;;2.30;;
45358;SDS011;31096;49.292;8.710;2023-03-23T05:53:05;5.03;;;2.45;;
45358;SDS011;31096;49.292;8.710;2023-03-23T05:57:55;3.83;;;2.13;;
45358;SDS011;31096;49.292;8.710;2023-03-23T06:02:47;4.37;;;2.20;;
45358;SDS011;31096;49.292;8.710;2023-03-23T06:07:38;5.15;;;2.28;;
45358;SDS011;31096;49.292;8.710;2023-03-23T06:12:29;4.95;;;2.10;;
45358;SDS011;31096;49.292;8.710;2023-03-23T06:17:20;3.97;;;2.33;;
45358;SDS011;31096;49.292;8.710;2023-03-23T06:22:10;4.33;;;2.37;;
45358;SDS011;31096;49.292;8.710;2023-03-23T06:27:01;3.97;;;2.55;;
45358;SDS011;31096;49.292;8.710;2023-03-23T06:31:53;4.37;;;2.30;;
45358;SDS011;31096;49.292;8.710;2023-03-23T06:36:47;4.00;;;2.30;;
45358;SDS011;31096;49.292;8.710;2023-03-23T06:41:38;4.73;;;2.53;;
45358;SDS011;31096;49.292;8.710;2023-03-23T06:46:28;4.40;;;2.60;;
45358;SDS011;31096;49.292;8.710;2023-03-23T06:51:19;3.70;;;2.10;;
45358;SDS011;31096;49.292;8.710;2023-03-23T06:56:11;4.82;;;2.00;;
45358;SDS011;31096;49.292;8.710;2023-03-23T07:01:03;3.73;;;2.20;;
45358;SDS011;31096;49.292;8.710;2023-03-23T07:05:54;3.85;;;1.95;;
45358;SDS011;31096;49.292;8.710;2023-03-23T07:10:45;3.88;;;2.15;;
45358;SDS011;31096;49.292;8.710;2023-03-23T07:15:37;4.73;;;2.10;;
45358;SDS011;31096;49.292;8.710;2023-03-23T07:20:29;4.53;;;2.30;;
45358;SDS011;31096;49.292;8.710;2023-03-23T07:25:19;4.90;;;2.40;;
45358;SDS011;31096;49.292;8.710;2023-03-23T07:30:10;4.50;;;2.42;;
45358;SDS011;31096;49.292;8.710;2023-03-23T07:35:02;5.00;;;2.40;;
45358;SDS011;31096;49.292;8.710;2023-03-23T07:39:53;4.20;;;2.00;;
45358;SDS011;31096;49.292;8.710;2023-03-23T07:44:44;4.50;;;2.20;;
45358;SDS011;31096;49.292;8.710;2023-03-23T07:49:35;5.07;;;1.98;;
45358;SDS011;31096;49.292;8.710;2023-03-23T07:54:27;4.30;;;1.90;;
45358;SDS011;31096;49.292;8.710;2023-03-23T07:59:17;5.83;;;2.17;;
45358;SDS011;31096;49.292;8.710;2023-03-23T08:04:08;4.37;;;2.30;;
45358;SDS011;31096;49.292;8.710;2023-03-23T08:08:59;4.28;;;2.17;;
45358;SDS011;31096;49.292;8.710;2023-03-23T08:13:50;5.13;;;2.30;;
45358;SDS011;31096;49.292;8.710;2023-03-23T08:18:41;3.67;;;1.85;;
45358;SDS011;31096;49.292;8.710;2023-03-23T08:23:32;4.00;;;2.17;;
45358;SDS011;31096;49.292;8.710;2023-03-23T08:28:23;3.70;;;2.03;;
45358;SDS011;31096;49.292;8.710;2023-03-23T08:33:13;3.73;;;2.30;;
45358;SDS011;31096;49.292;8.710;2023-03-23T08:38:04;4.35;;;2.38;;
45358;SDS011;31096;49.292;8.710;2023-03-23T08:42:55;5.47;;;2.17;;
45358;SDS011;31096;49.292;8.710;2023-03-23T08:47:46;4.13;;;2.10;;
45358;SDS011;31096;49.292;8.710;2023-03-23T08:52:41;3.97;;;1.98;;
45358;SDS011;31096;49.292;8.710;2023-03-23T08:57:33;3.90;;;2.07;;
45358;SDS011;31096;49.292;8.710;2023-03-23T09:02:26;4.00;;;2.10;;
45358;SDS011;31096;49.292;8.710;2023-03-23T09:07:17;3.75;;;1.90;;
45358;SDS011;31096;49.292;8.710;2023-03-23T09:12:08;5.03;;;2.03;;
45358;SDS011;31096;49.292;8.710;2023-03-23T09:16:59;4.65;;;2.45;;
45358;SDS011;31096;49.292;8.710;2023-03-23T09:21:50;4.07;;;1.77;;
45358;SDS011;31096;49.292;8.710;2023-03-23T09:26:44;4.67;;;2.10;;
45358;SDS011;31096;49.292;8.710;2023-03-23T09:31:35;4.13;;;2.47;;
45358;SDS011;31096;49.292;8.710;2023-03-23T09:36:26;3.83;;;2.07;;
45358;SDS011;31096;49.292;8.710;2023-03-23T09:46:45;4.05;;;2.30;;
45358;SDS011;31096;49.292;8.710;2023-03-23T09:51:49;4.35;;;2.00;;
45358;SDS011;31096;49.292;8.710;2023-03-23T09:56:43;5.23;;;2.40;;
45358;SDS011;31096;49.292;8.710;2023-03-23T10:01:37;4.18;;;2.40;;
45358;SDS011;31096;49.292;8.710;2023-03-23T10:06:34;4.07;;;2.03;;
45358;SDS011;31096;49.292;8.710;2023-03-23T10:12:10;4.10;;;2.40;;
45358;SDS011;31096;49.292;8.710;2023-03-23T10:22:14;3.75;;;2.15;;
45358;SDS011;31096;49.292;8.710;2023-03-23T10:27:18;3.80;;;2.20;;
45358;SDS011;31096;49.292;8.710;2023-03-23T10:32:18;4.97;;;2.17;;
45358;SDS011;31096;49.292;8.710;2023-03-23T10:47:17;5.10;;;1.90;;
45358;SDS011;31096;49.292;8.710;2023-03-23T10:57:27;3.60;;;2.03;;
45358;SDS011;31096;49.292;8.710;2023-03-23T11:02:20;4.20;;;2.23;;
45358;SDS011;31096;49.292;8.710;2023-03-23T11:07:18;3.60;;;1.90;;
45358;SDS011;31096;49.292;8.710;2023-03-23T11:12:16;3.85;;;2.38;;
45358;SDS011;31096;49.292;8.710;2023-03-23T11:17:29;3.37;;;2.00;;
45358;SDS011;31096;49.292;8.710;2023-03-23T11:22:22;4.72;;;2.20;;
45358;SDS011;31096;49.292;8.710;2023-03-23T11:27:17;5.05;;;2.03;;
45358;SDS011;31096;49.292;8.710;2023-03-23T11:32:09;5.57;;;2.57;;
45358;SDS011;31096;49.292;8.710;2023-03-23T11:37:04;4.30;;;2.30;;
45358;SDS011;31096;49.292;8.710;2023-03-23T11:42:11;4.13;;;2.15;;
45358;SDS011;31096;49.292;8.710;2023-03-23T11:52:46;3.73;;;2.30;;
45358;SDS011;31096;49.292;8.710;2023-03-23T11:57:52;4.90;;;2.30;;
45358;SDS011;31096;49.292;8.710;2023-03-23T12:13:54;4.57;;;2.25;;
45358;SDS011;31096;49.292;8.710;2023-03-23T12:18:55;4.75;;;2.30;;
45358;SDS011;31096;49.292;8.710;2023-03-23T12:44:35;4.63;;;2.37;;
45358;SDS011;31096;49.292;8.710;2023-03-23T12:49:52;4.00;;;2.10;;
45358;SDS011;31096;49.292;8.710;2023-03-23T12:54:53;3.90;;;1.88;;
45358;SDS011;31096;49.292;8.710;2023-03-23T12:59:59;3.80;;;2.20;;
45358;SDS011;31096;49.292;8.710;2023-03-23T13:10:15;4.18;;;2.10;;
45358;SDS011;31096;49.292;8.710;2023-03-23T13:30:52;3.60;;;2.07;;
45358;SDS011;31096;49.292;8.710;2023-03-23T13:35:54;4.00;;;2.33;;
45358;SDS011;31096;49.292;8.710;2023-03-23T13:40:44;4.32;;;2.10;;
45358;SDS011;31096;49.292;8.710;2023-03-23T13:45:42;4.17;;;2.10;;
45358;SDS011;31096;49.292;8.710;2023-03-23T13:50:44;3.50;;;1.67;;
45358;SDS011;31096;49.292;8.710;2023-03-23T13:55:49;4.10;;;2.28;;
45358;SDS011;31096;49.292;8.710;2023-03-23T14:11:01;3.33;;;1.80;;
45358;SDS011;31096;49.292;8.710;2023-03-23T14:16:16;3.47;;;1.80;;
45358;SDS011;31096;49.292;8.710;2023-03-23T14:21:30;3.47;;;1.70;;
45358;SDS011;31096;49.292;8.710;2023-03-23T14:26:23;3.75;;;2.13;;
45358;SDS011;31096;49.292;8.710;2023-03-23T14:31:25;3.70;;;2.10;;
45358;SDS011;31096;49.292;8.710;2023-03-23T14:36:25;3.33;;;1.93;;
45358;SDS011;31096;49.292;8.710;2023-03-23T14:41:18;3.60;;;1.90;;
45358;SDS011;31096;49.292;8.710;2023-03-23T14:46:09;4.20;;;1.97;;
45358;SDS011;31096;49.292;8.710;2023-03-23T14:51:02;3.58;;;1.90;;
45358;SDS011;31096;49.292;8.710;2023-03-23T14:55:55;3.60;;;2.08;;
45358;SDS011;31096;49.292;8.710;2023-03-23T15:00:49;4.10;;;2.00;;
45358;SDS011;31096;49.292;8.710;2023-03-23T15:05:58;5.90;;;2.17;;
45358;SDS011;31096;49.292;8.710;2023-03-23T15:10:54;3.60;;;1.70;;
45358;SDS011;31096;49.292;8.710;2023-03-23T15:16:00;3.50;;;2.03;;
45358;SDS011;31096;49.292;8.710;2023-03-23T15:20:57;3.83;;;1.95;;
45358;SDS011;31096;49.292;8.710;2023-03-23T15:25:49;5.43;;;2.07;;
45358;SDS011;31096;49.292;8.710;2023-03-23T15:30:52;4.03;;;2.30;;
45358;SDS011;31096;49.292;8.710;2023-03-23T15:35:47;4.30;;;1.90;;
45358;SDS011;31096;49.292;8.710;2023-03-23T15:40:39;4.30;;;1.70;;
45358;SDS011;31096;49.292;8.710;2023-03-23T15:45:30;4.03;;;1.90;;
45358;SDS011;31096;49.292;8.710;2023-03-23T15:55:37;3.83;;;2.20;;
45358;SDS011;31096;49.292;8.710;2023-03-23T16:00:28;16.27;;;2.10;;
45358;SDS011;31096;49.292;8.710;2023-03-23T16:05:19;4.10;;;2.27;;
45358;SDS011;31096;49.292;8.710;2023-03-23T16:10:14;3.75;;;2.08;;
45358;SDS011;31096;49.292;8.710;2023-03-23T16:15:11;4.63;;;2.17;;
45358;SDS011;31096;49.292;8.710;2023-03-23T16:20:08;4.37;;;2.60;;
45358;SDS011;31096;49.292;8.710;2023-03-23T16:25:05;4.43;;;2.22;;
45358;SDS011;31096;49.292;8.710;2023-03-23T16:29:56;3.95;;;2.10;;
45358;SDS011;31096;49.292;8.710;2023-03-23T16:34:49;5.27;;;2.20;;
45358;SDS011;31096;49.292;8.710;2023-03-23T16:39:40;4.63;;;2.30;;
45358;SDS011;31096;49.292;8.710;2023-03-23T16:44:30;4.23;;;1.90;;
45358;SDS011;31096;49.292;8.710;2023-03-23T16:49:21;4.60;;;2.60;;
45358;SDS011;31096;49.292;8.710;2023-03-23T16:54:12;4.88;;;2.42;;
45358;SDS011;31096;49.292;8.710;2023-03-23T16:59:03;4.83;;;2.10;;
45358;SDS011;31096;49.292;8.710;2023-03-23T17:03:54;5.03;;;2.63;;
45358;SDS011;31096;49.292;8.710;2023-03-23T17:08:44;5.93;;;2.50;;
45358;SDS011;31096;49.292;8.710;2023-03-23T17:13:35;4.40;;;2.77;;
45358;SDS011;31096;49.292;8.710;2023-03-23T17:18:26;4.68;;;2.78;;
45358;SDS011;31096;49.292;8.710;2023-03-23T17:23:18;4.32;;;2.47;;
45358;SDS011;31096;49.292;8.710;2023-03-23T17:28:08;5.53;;;2.53;;
45358;SDS011;31096;49.292;8.710;2023-03-23T17:32:59;4.28;;;2.55;;
45358;SDS011;31096;49.292;8.710;2023-03-23T17:37:50;4.50;;;2.57;;
45358;SDS011;31096;49.292;8.710;2023-03-23T17:42:41;4.77;;;2.50;;
45358;SDS011;31096;49.292;8.710;2023-03-23T17:47:32;5.28;;;3.13;;
45358;SDS011;31096;49.292;8.710;2023-03-23T17:52:23;5.30;;;2.97;;
45358;SDS011;31096;49.292;8.710;2023-03-23T17:57:14;4.57;;;2.45;;
45358;SDS011;31096;49.292;8.710;2023-03-23T18:02:05;5.00;;;3.03;;
45358;SDS011;31096;49.292;8.710;2023-03-23T18:06:56;5.17;;;3.07;;
45358;SDS011;31096;49.292;8.710;2023-03-23T18:11:47;6.13;;;3.47;;
45358;SDS011;31096;49.292;8.710;2023-03-23T18:16:38;6.17;;;3.00;;
45358;SDS011;31096;49.292;8.710;2023-03-23T18:21:28;5.27;;;3.03;;
45358;SDS011;31096;49.292;8.710;2023-03-23T18:26:19;6.07;;;2.70;;
45358;SDS011;31096;49.292;8.710;2023-03-23T18:31:12;5.63;;;3.08;;
45358;SDS011;31096;49.292;8.710;2023-03-23T18:36:05;5.97;;;3.83;;
45358;SDS011;31096;49.292;8.710;2023-03-23T18:40:57;6.65;;;2.95;;
45358;SDS011;31096;49.292;8.710;2023-03-23T18:45:52;5.07;;;3.07;;
45358;SDS011;31096;49.292;8.710;2023-03-23T18:50:55;8.40;;;4.25;;
45358;SDS011;31096;49.292;8.710;2023-03-23T18:55:48;6.40;;;3.95;;
45358;SDS011;31096;49.292;8.710;2023-03-23T19:00:40;6.17;;;3.57;;
45358;SDS011;31096;49.292;8.710;2023-03-23T19:05:32;6.20;;;3.77;;
45358;SDS011;31096;49.292;8.710;2023-03-23T19:10:24;6.38;;;4.13;;
45358;SDS011;31096;49.292;8.710;2023-03-23T19:15:15;6.57;;;3.20;;
45358;SDS011;31096;49.292;8.710;2023-03-23T19:20:07;5.70;;;3.60;;
45358;SDS011;31096;49.292;8.710;2023-03-23T19:24:59;7.05;;;4.10;;
45358;SDS011;31096;49.292;8.710;2023-03-23T19:29:49;6.33;;;3.43;;
45358;SDS011;31096;49.292;8.710;2023-03-23T19:34:40;7.00;;;3.80;;
45358;SDS011;31096;49.292;8.710;2023-03-23T19:39:31;6.80;;;4.23;;
45358;SDS011;31096;49.292;8.710;2023-03-23T19:44:23;7.20;;;4.65;;
45358;SDS011;31096;49.292;8.710;2023-03-23T19:49:13;6.30;;;4.30;;
45358;SDS011;31096;49.292;8.710;2023-03-23T19:54:04;6.90;;;4.25;;
45358;SDS011;31096;49.292;8.710;2023-03-23T19:58:56;5.63;;;3.23;;
45358;SDS011;31096;49.292;8.710;2023-03-23T20:03:47;6.50;;;3.67;;
45358;SDS011;31096;49.292;8.710;2023-03-23T20:08:42;6.80;;;3.90;;
45358;SDS011;31096;49.292;8.710;2023-03-23T20:13:34;6.32;;;4.00;;
45358;SDS011;31096;49.292;8.710;2023-03-23T20:18:25;6.17;;;3.93;;
45358;SDS011;31096;49.292;8.710;2023-03-23T20:23:16;9.03;;;4.90;;
45358;SDS011;31096;49.292;8.710;2023-03-23T20:28:06;8.07;;;4.20;;
45358;SDS011;31096;49.292;8.710;2023-03-23T20:32:58;9.27;;;5.80;;
45358;SDS011;31096;49.292;8.710;2023-03-23T20:37:49;9.93;;;7.15;;
45358;SDS011;31096;49.292;8.710;2023-03-23T20:42:41;13.20;;;7.90;;
45358;SDS011;31096;49.292;8.710;2023-03-23T20:47:32;10.83;;;6.30;;
45358;SDS011;31096;49.292;8.710;2023-03-23T20:52:23;9.35;;;5.85;;
45358;SDS011;31096;49.292;8.710;2023-03-23T20:57:15;9.53;;;6.30;;
45358;SDS011;31096;49.292;8.710;2023-03-23T21:02:06;10.17;;;6.57;;
45358;SDS011;31096;49.292;8.710;2023-03-23T21:06:59;10.90;;;6.22;;
45358;SDS011;31096;49.292;8.710;2023-03-23T21:11:50;11.43;;;6.60;;
45358;SDS011;31096;49.292;8.710;2023-03-23T21:16:40;9.68;;;6.35;;
45358;SDS011;31096;49.292;8.710;2023-03-23T21:21:32;10.70;;;7.00;;
45358;SDS011;31096;49.292;8.710;2023-03-23T21:26:26;9.32;;;6.50;;
45358;SDS011;31096;49.292;8.710;2023-03-23T21:31:18;10.02;;;5.95;;
45358;SDS011;31096;49.292;8.710;2023-03-23T21:36:12;8.13;;;5.00;;
45358;SDS011;31096;49.292;8.710;2023-03-23T21:41:10;7.93;;;5.27;;
45358;SDS011;31096;49.292;8.710;2023-03-23T21:46:03;8.35;;;3.97;;
45358;SDS011;31096;49.292;8.710;2023-03-23T21:50:55;7.97;;;4.80;;
45358;SDS011;31096;49.292;8.710;2023-03-23T21:55:46;6.85;;;4.68;;
45358;SDS011;31096;49.292;8.710;2023-03-23T22:00:40;7.05;;;4.30;;
45358;SDS011;31096;49.292;8.710;2023-03-23T22:05:31;7.40;;;5.13;;
45358;SDS011;31096;49.292;8.710;2023-03-23T22:10:22;7.80;;;4.80;;
45358;SDS011;31096;49.292;8.710;2023-03-23T22:15:12;7.10;;;3.80;;
45358;SDS011;31096;49.292;8.710;2023-03-23T22:20:04;7.20;;;3.87;;
45358;SDS011;31096;49.292;8.710;2023-03-23T22:24:57;6.53;;;3.80;;
45358;SDS011;31096;49.292;8.710;2023-03-23T22:29:48;5.78;;;3.40;;
45358;SDS011;31096;49.292;8.710;2023-03-23T22:34:40;5.93;;;3.57;;
45358;SDS011;31096;49.292;8.710;2023-03-23T22:39:31;5.40;;;3.40;;
45358;SDS011;31096;49.292;8.710;2023-03-23T22:44:23;6.03;;;3.30;;
45358;SDS011;31096;49.292;8.710;2023-03-23T22:49:13;5.20;;;3.30;;
45358;SDS011;31096;49.292;8.710;2023-03-23T22:54:04;7.17;;;3.90;;
45358;SDS011;31096;49.292;8.710;2023-03-23T22:58:55;6.22;;;3.80;;
45358;SDS011;31096;49.292;8.710;2023-03-23T23:03:48;6.28;;;3.80;;
45358;SDS011;31096;49.292;8.710;2023-03-23T23:08:39;6.27;;;3.70;;
45358;SDS011;31096;49.292;8.710;2023-03-23T23:13:30;8.05;;;4.07;;
45358;SDS011;31096;49.292;8.710;2023-03-23T23:18:22;5.90;;;3.60;;
45358;SDS011;31096;49.292;8.710;2023-03-23T23:23:14;6.07;;;4.30;;
45358;SDS011;31096;49.292;8.710;2023-03-23T23:28:05;9.30;;;4.30;;
45358;SDS011;31096;49.292;8.710;2023-03-23T23:32:56;6.17;;;3.73;;
45358;SDS011;31096;49.292;8.710;2023-03-23T23:37:47;7.23;;;4.00;;
45358;SDS011;31096;49.292;8.710;2023-03-23T23:42:39;6.95;;;4.28;;
45358;SDS011;31096;49.292;8.710;2023-03-23T23:47:30;5.97;;;3.65;;
45358;SDS011;31096;49.292;8.710;2023-03-23T23:52:21;5.93;;;3.47;;
45358;SDS011;31096;49.292;8.710;2023-03-23T23:57:13;5.88;;;4.00;;
